Time;durP1;ratioP1;P1;durP2;ratioP2;P2;SDS_P1;SDS_P2;PMS_P1;PMS_P2;Temp;Humidity;BMP_temperature;BMP_pressure;BME280_temperature;BME280_humidity;BME280_pressure;Samples;Min_cycle;Max_cycle;Signal;HPM_P1;HPM_P2
2021/03/03 00:01:24;;;;;;;8.90;3.60;;;;;;;29.16;29.32;99647.00;5032382;28;20228;-61
2021/03/03 00:03:50;;;;;;;12.55;4.05;;;;;;;30.82;27.41;99650.19;5032249;28;20223;-61
2021/03/03 00:06:17;;;;;;;7.15;4.15;;;;;;;30.02;28.29;99654.28;5032969;28;20204;-60
2021/03/03 00:08:43;;;;;;;11.20;4.25;;;;;;;29.45;29.13;99650.09;5032444;28;20303;-61
2021/03/03 00:11:09;;;;;;;10.73;3.95;;;;;;;29.75;29.02;99651.09;5031955;28;20200;-60
2021/03/03 00:13:36;;;;;;;13.02;3.80;;;;;;;30.46;27.83;99648.22;5032234;28;20231;-61
2021/03/03 00:16:02;;;;;;;8.90;4.30;;;;;;;29.76;28.38;99652.78;5032291;28;20283;-61
2021/03/03 00:18:28;;;;;;;8.20;3.80;;;;;;;29.23;29.13;99644.47;5031608;28;20214;-60
2021/03/03 00:20:54;;;;;;;6.00;3.67;;;;;;;30.60;27.69;99649.25;5031508;28;20219;-61
2021/03/03 00:23:20;;;;;;;9.30;3.80;;;;;;;29.82;28.54;99646.66;5031789;28;20224;-61
2021/03/03 00:25:46;;;;;;;9.45;3.78;;;;;;;29.39;28.95;99646.22;5031945;28;20216;-61
2021/03/03 00:28:13;;;;;;;8.80;3.65;;;;;;;30.93;27.11;99652.44;5031970;28;20231;-62
2021/03/03 00:30:39;;;;;;;8.57;4.13;;;;;;;30.11;28.08;99646.97;5031579;28;20180;-62
2021/03/03 00:33:05;;;;;;;9.13;3.70;;;;;;;29.53;28.73;99642.78;5031758;28;20231;-62
2021/03/03 00:35:31;;;;;;;7.78;3.85;;;;;;;30.04;28.52;99647.72;5031985;28;20269;-61
2021/03/03 00:37:57;;;;;;;7.82;4.00;;;;;;;30.54;27.44;99645.41;5031571;28;20204;-61
2021/03/03 00:40:24;;;;;;;12.82;3.53;;;;;;;29.67;28.69;99638.47;5031446;28;20228;-60
2021/03/03 00:42:50;;;;;;;6.43;3.55;;;;;;;29.28;29.20;99643.94;5031910;28;20210;-61
2021/03/03 00:45:17;;;;;;;8.38;4.07;;;;;;;30.58;27.43;99635.09;5031246;28;20208;-61
2021/03/03 00:47:43;;;;;;;9.48;3.90;;;;;;;30.02;28.05;99640.81;5031455;28;20211;-61
2021/03/03 00:50:10;;;;;;;9.02;3.95;;;;;;;29.32;29.18;99634.50;5031590;28;20539;-61
2021/03/03 00:52:36;;;;;;;8.38;3.55;;;;;;;30.93;27.37;99633.53;5031048;28;20727;-60
2021/03/03 00:55:03;;;;;;;6.65;3.30;;;;;;;30.16;27.82;99641.88;5030965;28;20698;-61
2021/03/03 00:57:29;;;;;;;7.82;3.90;;;;;;;29.62;28.14;99634.66;5030948;28;20200;-57
2021/03/03 00:59:55;;;;;;;5.40;3.20;;;;;;;30.23;27.73;99638.28;5030621;28;20229;-60
2021/03/03 01:02:22;;;;;;;6.30;3.58;;;;;;;29.93;28.18;99629.25;5030935;28;20222;-61
2021/03/03 01:04:49;;;;;;;8.10;3.92;;;;;;;29.57;28.69;99629.78;5031022;28;20224;-62
2021/03/03 01:07:15;;;;;;;7.45;3.55;;;;;;;29.39;29.10;99629.22;5031447;28;20212;-60
2021/03/03 01:09:41;;;;;;;7.05;3.58;;;;;;;30.44;27.47;99636.75;5030774;28;20196;-61
2021/03/03 01:12:08;;;;;;;9.32;3.70;;;;;;;30.02;27.83;99636.25;5030883;28;20230;-61
2021/03/03 01:14:34;;;;;;;9.20;4.22;;;;;;;29.24;29.04;99632.66;5030828;28;20236;-62
2021/03/03 01:17:00;;;;;;;7.50;3.70;;;;;;;30.80;26.86;99638.75;5031037;28;20204;-60
2021/03/03 01:19:27;;;;;;;7.13;3.60;;;;;;;29.93;28.01;99631.94;5030841;28;20212;-62
2021/03/03 01:21:53;;;;;;;6.38;3.53;;;;;;;29.50;28.60;99626.97;5030716;28;20204;-62
2021/03/03 01:24:19;;;;;;;11.32;3.60;;;;;;;30.83;27.23;99627.56;5030880;28;20231;-62
2021/03/03 01:26:45;;;;;;;7.15;3.80;;;;;;;30.14;27.61;99622.34;5030721;28;20635;-61
2021/03/03 01:29:11;;;;;;;7.68;3.83;;;;;;;29.79;28.39;99625.47;5030664;28;20701;-61
2021/03/03 01:31:37;;;;;;;9.45;3.92;;;;;;;29.66;28.50;99622.50;5030533;28;20206;-61
2021/03/03 01:34:03;;;;;;;7.13;3.45;;;;;;;30.53;27.41;99621.34;5030896;28;20719;-61
2021/03/03 01:36:30;;;;;;;6.25;3.30;;;;;;;29.89;28.09;99614.44;5030936;28;20273;-62
2021/03/03 01:38:56;;;;;;;8.50;3.97;;;;;;;29.39;29.00;99602.28;5030478;28;20208;-59
2021/03/03 01:41:22;;;;;;;5.43;3.60;;;;;;;30.76;26.97;99608.59;5030531;28;20563;-61
2021/03/03 01:43:49;;;;;;;5.88;3.60;;;;;;;30.03;27.61;99612.84;5030446;28;20776;-62
2021/03/03 01:46:15;;;;;;;8.52;3.42;;;;;;;29.44;28.60;99606.13;5031278;28;20208;-62
2021/03/03 01:48:41;;;;;;;7.85;3.85;;;;;;;30.74;27.45;99613.34;5030304;28;20208;-61
2021/03/03 01:51:07;;;;;;;7.03;3.50;;;;;;;30.08;28.14;99611.25;5030696;28;20277;-62
2021/03/03 01:53:34;;;;;;;6.75;3.63;;;;;;;29.59;28.35;99599.97;5030626;28;20224;-61
2021/03/03 01:56:01;;;;;;;5.80;3.47;;;;;;;29.75;28.63;99602.56;5030399;28;20253;-62
2021/03/03 01:58:27;;;;;;;7.10;3.70;;;;;;;30.38;27.70;99600.56;5030637;28;20291;-61
2021/03/03 02:00:53;;;;;;;8.95;3.90;;;;;;;29.74;28.18;99600.03;5030664;28;20258;-61
2021/03/03 02:03:20;;;;;;;7.38;3.75;;;;;;;29.14;28.91;99597.88;5030496;28;20231;-58
2021/03/03 02:05:47;;;;;;;7.10;4.00;;;;;;;30.74;26.69;99602.53;5030221;28;20731;-61
2021/03/03 02:08:17;;;;;;;10.50;4.18;;;;;;;29.92;27.84;99602.47;5030524;28;20276;-62
2021/03/03 02:10:51;;;;;;;6.13;3.42;;;;;;;29.32;28.71;99591.38;5030226;28;20185;-62
2021/03/03 02:13:21;;;;;;;6.50;3.20;;;;;;;30.82;26.58;99598.88;5030851;28;20223;-61
2021/03/03 02:15:50;;;;;;;11.57;3.60;;;;;;;29.88;28.03;99592.03;5030395;28;20238;-61
2021/03/03 02:18:18;;;;;;;6.63;3.50;;;;;;;29.49;28.53;99594.81;5030556;28;20200;-62
2021/03/03 02:20:54;;;;;;;9.15;3.50;;;;;;;30.78;27.40;99597.59;5030106;28;20732;-60
2021/03/03 02:23:33;;;;;;;8.20;3.42;;;;;;;30.00;28.01;99591.63;5033530;28;20228;-61
2021/03/03 02:26:02;;;;;;;6.68;3.75;;;;;;;29.48;28.54;99602.06;5033810;28;20242;-59
2021/03/03 02:28:29;;;;;;;7.45;3.50;;;;;;;30.38;27.51;99600.56;5033822;28;20577;-61
2021/03/03 02:30:56;;;;;;;7.38;3.42;;;;;;;30.19;27.67;99598.34;5033852;28;20306;-61
2021/03/03 02:33:23;;;;;;;8.98;3.50;;;;;;;29.49;28.53;99595.69;5033345;28;20224;-56
2021/03/03 02:35:50;;;;;;;7.93;3.92;;;;;;;29.08;29.45;99595.88;5033465;28;20207;-62
2021/03/03 02:38:16;;;;;;;10.32;3.65;;;;;;;30.20;27.74;99590.06;5033241;28;20200;-62
2021/03/03 02:40:43;;;;;;;7.90;3.58;;;;;;;29.45;28.93;99596.19;5033874;28;20224;-61
2021/03/03 02:43:13;;;;;;;6.97;3.70;;;;;;;29.10;29.09;99591.13;5033330;28;20224;-61
2021/03/03 02:45:40;;;;;;;10.63;3.90;;;;;;;30.73;27.13;99600.03;5033525;28;20654;-61
2021/03/03 02:48:09;;;;;;;8.80;4.10;;;;;;;30.12;27.90;99597.41;5033524;28;20219;-60
2021/03/03 02:50:36;;;;;;;8.60;4.28;;;;;;;29.63;28.61;99606.69;5033594;28;20208;-61
2021/03/03 02:53:02;;;;;;;8.82;3.80;;;;;;;29.19;29.22;99601.91;5033537;28;20311;-61
2021/03/03 02:55:30;;;;;;;7.28;3.60;;;;;;;30.09;27.96;99598.59;5033582;28;20291;-61
2021/03/03 02:57:58;;;;;;;7.63;3.70;;;;;;;29.61;28.14;99608.72;5033346;28;20208;-61
2021/03/03 03:00:29;;;;;;;7.88;4.25;;;;;;;29.11;29.08;99600.03;5033122;28;20219;-62
2021/03/03 03:03:02;;;;;;;8.27;3.88;;;;;;;30.47;27.79;99595.91;5032678;28;20240;-64
2021/03/03 03:05:31;;;;;;;9.15;3.88;;;;;;;29.71;28.11;99591.31;5033190;28;20189;-61
2021/03/03 03:08:01;;;;;;;7.43;3.40;;;;;;;29.14;29.04;99576.31;5033544;28;20290;-61
2021/03/03 03:10:28;;;;;;;7.53;3.97;;;;;;;30.45;27.41;99587.16;5033466;28;20188;-59
2021/03/03 03:12:56;;;;;;;6.65;3.78;;;;;;;29.70;28.17;99584.22;5032901;28;20224;-60
2021/03/03 03:15:26;;;;;;;8.85;4.10;;;;;;;29.30;28.96;99577.25;5033202;28;20204;-61
2021/03/03 03:18:01;;;;;;;7.15;3.42;;;;;;;30.07;28.06;99579.06;5032929;28;20246;-61
2021/03/03 03:20:31;;;;;;;9.15;4.38;;;;;;;29.97;27.77;99583.88;5032530;28;20207;-60
2021/03/03 03:23:00;;;;;;;8.32;3.97;;;;;;;29.20;28.85;99582.03;5033425;28;20224;-60
2021/03/03 03:25:27;;;;;;;6.72;3.95;;;;;;;29.16;29.17;99579.66;5033146;28;20313;-61
2021/03/03 03:27:55;;;;;;;9.55;4.55;;;;;;;30.02;27.75;99576.09;5032984;28;20204;-61
2021/03/03 03:30:22;;;;;;;7.65;4.03;;;;;;;29.62;27.99;99586.16;5032787;28;20197;-61
2021/03/03 03:32:48;;;;;;;7.38;3.95;;;;;;;28.91;28.95;99588.84;5032742;28;20185;-61
2021/03/03 03:35:16;;;;;;;7.90;3.53;;;;;;;30.34;27.47;99584.88;5032296;28;20204;-61
2021/03/03 03:37:43;;;;;;;7.18;3.92;;;;;;;29.49;28.45;99590.28;5032012;28;20699;-61
2021/03/03 03:40:10;;;;;;;12.10;3.72;;;;;;;29.05;29.50;99585.44;5032364;28;20228;-61
2021/03/03 03:42:39;;;;;;;6.45;3.92;;;;;;;28.79;29.18;99589.25;5032473;28;20354;-61
2021/03/03 03:45:06;;;;;;;5.40;3.50;;;;;;;30.11;27.74;99590.31;5032009;28;20204;-69
2021/03/03 03:47:34;;;;;;;9.63;4.00;;;;;;;30.61;27.03;99596.94;5032093;28;20281;-60
2021/03/03 03:50:03;;;;;;;9.95;4.00;;;;;;;29.88;27.86;99592.03;5032292;28;20215;-61
2021/03/03 03:52:31;;;;;;;7.63;3.88;;;;;;;29.63;28.53;99593.22;5031929;28;20274;-61
2021/03/03 03:54:57;;;;;;;5.85;3.53;;;;;;;30.11;27.81;99590.31;5032525;28;20601;-61
2021/03/03 03:57:23;;;;;;;8.02;3.83;;;;;;;29.75;28.18;99601.72;5032483;28;20208;-61
2021/03/03 03:59:50;;;;;;;6.30;3.75;;;;;;;29.11;29.33;99598.22;5032494;28;20200;-60
2021/03/03 04:02:17;;;;;;;7.15;3.58;;;;;;;30.44;27.44;99601.66;5032596;28;20221;-59
2021/03/03 04:04:43;;;;;;;10.57;4.00;;;;;;;29.13;28.87;99611.50;5031920;28;20246;-61
2021/03/03 04:07:09;;;;;;;7.80;3.78;;;;;;;28.71;29.40;99604.56;5033055;28;20207;-61
2021/03/03 04:09:36;;;;;;;9.77;3.90;;;;;;;30.02;28.13;99608.44;5032052;28;20384;-61
2021/03/03 04:12:03;;;;;;;6.40;3.47;;;;;;;30.29;27.56;99609.72;5032039;28;20204;-61
2021/03/03 04:14:29;;;;;;;8.32;3.38;;;;;;;29.64;28.36;99608.38;5031732;28;20250;-61
2021/03/03 04:16:55;;;;;;;7.10;3.58;;;;;;;29.69;28.09;99604.13;5031685;28;20207;-59
2021/03/03 04:19:22;;;;;;;11.13;3.95;;;;;;;30.19;27.88;99614.53;5031913;28;20208;-60
2021/03/03 04:21:48;;;;;;;7.63;3.55;;;;;;;29.35;28.93;99615.28;5031921;28;20273;-62
2021/03/03 04:24:14;;;;;;;7.65;3.55;;;;;;;29.08;29.12;99612.03;5031955;28;20227;-61
2021/03/03 04:26:41;;;;;;;6.18;3.50;;;;;;;30.36;27.62;99617.91;5032294;28;20199;-60
2021/03/03 04:29:07;;;;;;;7.07;3.95;;;;;;;29.39;28.39;99608.50;5031745;28;20649;-60
2021/03/03 04:31:33;;;;;;;9.00;3.45;;;;;;;28.97;28.85;99601.63;5031396;28;20514;-61
2021/03/03 04:33:59;;;;;;;6.47;4.07;;;;;;;29.07;28.95;99604.94;5030929;28;20539;-61
2021/03/03 04:36:25;;;;;;;7.47;3.53;;;;;;;30.43;27.57;99610.81;5031164;28;20692;-59
2021/03/03 04:38:51;;;;;;;8.07;3.45;;;;;;;30.87;26.70;99619.94;5031201;28;20230;-61
2021/03/03 04:41:17;;;;;;;6.20;3.63;;;;;;;29.78;28.15;99602.25;5030902;28;20676;-61
2021/03/03 04:43:44;;;;;;;7.47;4.18;;;;;;;29.35;28.40;99604.50;5031264;28;20278;-61
2021/03/03 04:46:10;;;;;;;9.13;3.97;;;;;;;31.46;25.96;99600.97;5030995;28;20581;-60
2021/03/03 04:48:36;;;;;;;12.23;4.32;;;;;;;30.29;27.24;99612.41;5031132;28;20568;-61
2021/03/03 04:51:02;;;;;;;7.10;3.33;;;;;;;29.71;27.98;99606.63;5031417;28;20200;-60
2021/03/03 04:53:28;;;;;;;6.47;3.55;;;;;;;29.91;27.94;99611.56;5031436;28;20227;-59
2021/03/03 04:55:54;;;;;;;9.82;4.00;;;;;;;30.90;26.76;99606.91;5031227;28;20227;-60
2021/03/03 04:58:20;;;;;;;8.35;3.55;;;;;;;30.19;27.66;99604.56;5031054;28;20608;-61
2021/03/03 05:00:47;;;;;;;8.70;4.15;;;;;;;29.69;27.73;99603.28;5031120;28;20297;-60
2021/03/03 05:03:13;;;;;;;8.77;3.75;;;;;;;30.74;26.49;99601.69;5030641;28;20622;-60
2021/03/03 05:05:39;;;;;;;6.07;3.50;;;;;;;30.01;27.25;99596.84;5030958;28;20210;-61
2021/03/03 05:08:06;;;;;;;8.38;3.95;;;;;;;29.53;28.04;99602.38;5030892;28;20199;-60
2021/03/03 05:10:32;;;;;;;8.27;3.42;;;;;;;30.99;26.99;99599.56;5030856;28;20204;-61
2021/03/03 05:12:58;;;;;;;5.90;3.60;;;;;;;30.03;27.08;99597.47;5030828;28;20230;-59
2021/03/03 05:15:24;;;;;;;7.38;3.58;;;;;;;29.43;27.97;99593.69;5030965;28;20215;-60
2021/03/03 05:17:51;;;;;;;6.53;3.40;;;;;;;29.87;27.81;99595.75;5031479;28;20231;-61
2021/03/03 05:20:17;;;;;;;8.95;3.72;;;;;;;30.53;26.63;99599.75;5030980;28;20227;-61
2021/03/03 05:22:43;;;;;;;8.98;3.90;;;;;;;29.78;27.65;99602.25;5031402;28;20362;-61
2021/03/03 05:25:10;;;;;;;6.68;3.80;;;;;;;29.37;28.44;99598.94;5031254;28;20208;-61
2021/03/03 05:27:36;;;;;;;8.57;4.30;;;;;;;30.78;26.97;99600.31;5030929;28;20268;-60
2021/03/03 05:30:04;;;;;;;7.28;3.70;;;;;;;30.44;26.78;99593.56;5031157;28;20278;-57
2021/03/03 05:32:30;;;;;;;8.48;4.25;;;;;;;29.78;27.52;99586.06;5030845;28;20325;-61
2021/03/03 05:34:57;;;;;;;8.35;3.70;;;;;;;29.62;27.85;99589.66;5030773;28;20714;-61
2021/03/03 05:37:23;;;;;;;7.60;3.65;;;;;;;30.81;26.61;99583.72;5031266;28;20235;-62
2021/03/03 05:39:49;;;;;;;8.48;3.67;;;;;;;29.70;27.73;99583.41;5031381;28;20211;-61
2021/03/03 05:42:15;;;;;;;6.40;3.67;;;;;;;29.42;28.05;99573.13;5031659;28;20314;-61
2021/03/03 05:44:45;;;;;;;8.00;4.13;;;;;;;30.85;26.19;99571.50;5031120;28;20224;-62
2021/03/03 05:47:12;;;;;;;6.05;3.83;;;;;;;30.23;27.17;99583.50;5030980;28;20219;-61
2021/03/03 05:49:43;;;;;;;8.20;3.83;;;;;;;29.73;27.64;99583.03;5031069;28;20318;-61
2021/03/03 05:52:12;;;;;;;8.40;3.78;;;;;;;30.25;27.54;99582.25;5030847;28;20188;-62
2021/03/03 05:54:40;;;;;;;8.60;3.40;;;;;;;30.22;26.99;99585.31;5030588;28;20223;-62
2021/03/03 05:57:07;;;;;;;9.70;4.00;;;;;;;29.62;27.95;99588.84;5032515;28;20214;-62
2021/03/03 05:59:34;;;;;;;8.85;3.72;;;;;;;29.40;28.17;99583.25;5034755;28;20627;-59
2021/03/03 06:02:00;;;;;;;7.65;4.05;;;;;;;30.07;27.49;99584.47;5034564;28;20293;-61
2021/03/03 06:04:26;;;;;;;8.02;3.42;;;;;;;29.91;27.23;99596.25;5034895;28;20293;-65
2021/03/03 06:06:52;;;;;;;7.03;3.55;;;;;;;29.46;27.19;99593.34;5034605;28;20196;-60
2021/03/03 06:09:19;;;;;;;9.52;3.78;;;;;;;31.51;24.86;99597.69;5034132;28;20204;-61
2021/03/03 06:11:45;;;;;;;7.75;4.03;;;;;;;29.91;26.90;99603.47;5033947;28;20273;-61
2021/03/03 06:14:12;;;;;;;5.78;3.47;;;;;;;29.36;27.14;99600.78;5033443;28;20642;-61
2021/03/03 06:16:39;;;;;;;7.55;3.92;;;;;;;30.26;26.34;99602.84;5033713;28;20287;-62
2021/03/03 06:19:05;;;;;;;6.13;3.80;;;;;;;31.44;24.50;99602.16;5034444;28;20272;-60
2021/03/03 06:21:32;;;;;;;9.50;4.05;;;;;;;29.63;27.19;99602.13;5034171;28;20228;-60
2021/03/03 06:24:00;;;;;;;10.13;4.70;;;;;;;28.99;28.93;99607.66;5033509;28;20236;-61
2021/03/03 06:26:27;;;;;;;13.38;3.63;;;;;;;31.02;26.72;99603.75;5033569;28;20666;-61
2021/03/03 06:28:53;;;;;;;26.77;6.10;;;;;;;30.63;26.78;99614.63;5034014;28;20349;-60
2021/03/03 06:31:28;;;;;;;33.17;6.43;;;;;;;30.14;27.31;99600.75;5036628;28;20550;-69
2021/03/03 06:34:08;;;;;;;26.70;5.75;;;;;;;29.56;28.77;99605.72;5033599;28;20219;-70
2021/03/03 06:36:34;;;;;;;33.00;5.68;;;;;;;30.61;27.93;99608.59;5033212;28;20191;-71
2021/03/03 06:39:15;;;;;;;26.33;5.80;;;;;;;32.05;25.30;99604.44;5033746;28;20200;-71
2021/03/03 06:41:42;;;;;;;30.00;6.07;;;;;;;30.89;27.09;99599.81;5034016;28;20212;-70
2021/03/03 06:44:09;;;;;;;15.38;5.03;;;;;;;30.44;27.92;99598.97;5033710;28;20259;-71
2021/03/03 06:46:35;;;;;;;26.63;5.78;;;;;;;32.00;26.27;99596.91;5033506;28;20523;-72
2021/03/03 06:49:01;;;;;;;21.48;5.30;;;;;;;31.50;25.61;99606.81;5033631;28;20684;-73
2021/03/03 06:51:30;;;;;;;16.88;4.53;;;;;;;30.85;26.51;99613.91;5033107;28;20202;-74
2021/03/03 06:53:57;;;;;;;31.48;5.75;;;;;;;30.32;27.88;99611.22;5033702;28;20402;-71
2021/03/03 06:56:34;;;;;;;21.80;4.93;;;;;;;32.39;25.09;99610.97;5034719;28;20300;-72
2021/03/03 06:59:16;;;;;;;24.90;5.32;;;;;;;31.23;26.65;99606.50;5035217;28;20274;-72
2021/03/03 07:01:43;;;;;;;38.47;5.40;;;;;;;30.69;27.63;99609.50;5045809;28;20353;-71
2021/03/03 07:04:23;;;;;;;20.42;4.43;;;;;;;31.21;27.24;99613.13;5046953;28;20231;-72
2021/03/03 07:06:50;;;;;;;18.92;5.40;;;;;;;32.20;25.54;99626.03;5046424;28;20414;-72
2021/03/03 07:09:16;;;;;;;28.10;5.47;;;;;;;30.97;26.60;99610.53;5046798;28;20185;-76
2021/03/03 07:11:45;;;;;;;26.25;5.15;;;;;;;30.88;27.74;99613.53;5036688;28;20189;-75
2021/03/03 07:14:17;;;;;;;23.92;5.55;;;;;;;31.70;26.70;99607.88;5034014;28;20305;-75
2021/03/03 07:17:03;;;;;;;16.30;4.50;;;;;;;32.24;25.54;99608.38;5033841;28;20215;-75
2021/03/03 07:19:29;;;;;;;10.90;4.82;;;;;;;31.22;26.60;99615.63;5033270;28;20198;-76
2021/03/03 07:21:56;;;;;;;18.00;5.15;;;;;;;30.77;27.69;99625.63;5033206;28;20321;-76
2021/03/03 07:24:24;;;;;;;12.93;4.50;;;;;;;32.75;25.90;99615.41;5033068;28;20305;-75
2021/03/03 07:26:50;;;;;;;10.73;3.85;;;;;;;31.99;25.56;99619.56;5032991;28;20674;-75
2021/03/03 07:29:17;;;;;;;14.63;4.57;;;;;;;31.16;27.28;99611.00;5032467;28;20204;-75
2021/03/03 07:31:43;;;;;;;13.73;4.63;;;;;;;31.01;27.09;99618.28;5032641;28;20230;-75
2021/03/03 07:34:10;;;;;;;14.25;4.55;;;;;;;31.07;26.69;99617.53;5032767;28;20285;-75
2021/03/03 07:36:38;;;;;;;16.65;4.07;;;;;;;31.31;26.75;99619.91;5032316;28;20311;-75
2021/03/03 07:39:09;;;;;;;12.60;4.35;;;;;;;32.46;25.72;99620.00;5032516;28;20232;-76
2021/03/03 07:41:43;;;;;;;12.30;4.55;;;;;;;33.09;23.99;99619.13;5032764;28;20301;-76
2021/03/03 07:44:11;;;;;;;26.25;6.65;;;;;;;32.59;23.51;99619.22;5032462;28;20365;-75
2021/03/03 07:46:40;;;;;;;17.90;5.03;;;;;;;31.59;24.80;99608.38;5033552;28;20299;-75
2021/03/03 07:49:09;;;;;;;10.35;4.55;;;;;;;31.03;26.81;99605.41;5032655;28;20196;-75
2021/03/03 07:51:36;;;;;;;32.70;5.60;;;;;;;30.17;28.38;99616.56;5033149;28;20260;-75
2021/03/03 07:54:03;;;;;;;15.85;4.60;;;;;;;29.51;28.95;99611.63;5034058;28;20224;-74
2021/03/03 07:56:30;;;;;;;17.17;4.35;;;;;;;29.04;29.44;99618.75;5033449;28;20204;-75
2021/03/03 07:58:58;;;;;;;12.55;4.57;;;;;;;28.64;30.56;99620.56;5032531;28;20301;-75
2021/03/03 08:01:25;;;;;;;18.67;4.45;;;;;;;29.15;29.50;99614.84;5032230;28;20314;-76
2021/03/03 08:03:52;;;;;;;23.50;5.35;;;;;;;29.71;28.04;99614.69;5032094;28;20221;-73
2021/03/03 08:06:39;;;;;;;14.25;4.75;;;;;;;31.14;26.88;99607.63;5032361;28;20675;-75
2021/03/03 08:09:13;;;;;;;15.52;4.30;;;;;;;32.10;25.30;99596.63;5027508;28;20219;-74
2021/03/03 08:11:40;;;;;;;18.85;4.63;;;;;;;32.74;24.73;99603.75;5032179;28;20211;-75
2021/03/03 08:14:39;;;;;;;17.65;5.20;;;;;;;32.70;22.22;99604.34;5032584;28;20311;-76
2021/03/03 08:17:07;;;;;;;18.20;4.88;;;;;;;33.29;24.96;99611.09;4970841;28;20221;-74
2021/03/03 08:20:02;;;;;;;15.18;5.50;;;;;;;33.47;24.01;99600.50;5018664;28;20223;-74
2021/03/03 08:22:47;;;;;;;17.38;4.95;;;;;;;33.31;25.05;99603.59;4996738;28;20583;-74
2021/03/03 08:25:47;;;;;;;16.80;5.10;;;;;;;34.08;23.71;99612.31;5032950;28;20208;-75
2021/03/03 08:28:30;;;;;;;12.60;4.70;;;;;;;33.08;24.50;99598.50;5031793;28;20316;-76
2021/03/03 08:31:25;;;;;;;15.43;4.88;;;;;;;32.09;25.82;99612.03;5032513;28;20191;-73
2021/03/03 08:33:59;;;;;;;20.08;4.70;;;;;;;32.57;25.78;99608.59;5030005;28;20224;-73
2021/03/03 08:37:00;;;;;;;14.73;5.03;;;;;;;33.90;23.86;99618.34;5032389;28;20220;-74
2021/03/03 08:39:32;;;;;;;12.38;4.65;;;;;;;32.72;25.92;99611.22;5032309;28;20193;-74
2021/03/03 08:41:59;;;;;;;14.20;4.38;;;;;;;32.04;26.36;99613.59;5031358;28;20299;-75
2021/03/03 08:44:25;;;;;;;14.27;4.20;;;;;;;32.88;25.25;99618.19;5031763;28;20228;-76
2021/03/03 08:46:52;;;;;;;11.57;4.32;;;;;;;33.95;24.47;99615.03;5031609;28;20279;-74
2021/03/03 08:49:32;;;;;;;8.85;3.97;;;;;;;32.98;25.72;99598.88;5032000;28;20253;-74
2021/03/03 08:52:12;;;;;;;8.07;4.03;;;;;;;32.03;27.09;99604.66;5031785;28;20215;-76
2021/03/03 08:54:46;;;;;;;14.35;4.50;;;;;;;31.98;27.45;99590.88;5032207;28;20291;-73
2021/03/03 08:57:32;;;;;;;8.65;4.15;;;;;;;33.71;24.95;99601.03;5031756;28;20264;-74
2021/03/03 08:59:59;;;;;;;11.43;4.18;;;;;;;34.35;23.49;99593.31;5032246;28;20191;-73
2021/03/03 09:02:36;;;;;;;9.05;3.72;;;;;;;33.24;25.21;99597.31;5032082;28;20248;-73
2021/03/03 09:05:07;;;;;;;15.65;3.97;;;;;;;32.40;25.79;99597.25;5031090;28;20281;-73
2021/03/03 09:07:35;;;;;;;10.70;3.97;;;;;;;32.91;26.13;99597.97;5031951;28;20279;-74
2021/03/03 09:10:04;;;;;;;8.63;3.95;;;;;;;33.79;25.58;99603.53;5031140;28;20211;-74
2021/03/03 09:12:32;;;;;;;9.73;3.90;;;;;;;33.99;23.92;99603.53;5032013;28;20231;-73
2021/03/03 09:15:01;;;;;;;12.50;3.60;;;;;;;32.67;25.78;99596.63;5031419;28;20255;-73
2021/03/03 09:17:30;;;;;;;9.05;3.75;;;;;;;32.01;27.15;99595.91;5031154;28;20621;-73
2021/03/03 09:19:58;;;;;;;16.65;4.10;;;;;;;32.49;27.13;99605.22;5032532;28;20204;-74
2021/03/03 09:22:27;;;;;;;8.38;3.75;;;;;;;33.42;24.77;99607.59;5031982;28;20323;-75
2021/03/03 09:24:55;;;;;;;12.90;3.33;;;;;;;34.20;25.01;99607.09;5031282;28;20227;-74
2021/03/03 09:27:23;;;;;;;11.82;3.85;;;;;;;32.69;26.63;99599.97;5031728;28;20196;-73
2021/03/03 09:29:50;;;;;;;8.05;3.90;;;;;;;31.72;26.75;99595.00;5031598;28;20228;-73
2021/03/03 09:32:20;;;;;;;9.02;3.85;;;;;;;32.59;26.33;99605.69;5034568;28;20185;-72
2021/03/03 09:34:48;;;;;;;10.32;4.07;;;;;;;31.81;27.13;99608.38;5035127;28;20307;-73
2021/03/03 09:37:16;;;;;;;7.93;3.28;;;;;;;30.89;28.48;99604.38;5035144;28;20210;-73
2021/03/03 09:39:43;;;;;;;10.93;3.65;;;;;;;30.45;29.13;99597.97;5035522;28;20199;-73
2021/03/03 09:42:11;;;;;;;8.65;4.03;;;;;;;32.08;26.18;99594.09;5034571;28;20250;-73
2021/03/03 09:44:58;;;;;;;12.38;3.95;;;;;;;33.28;25.13;99598.59;5035053;28;20232;-73
2021/03/03 09:47:27;;;;;;;9.95;3.63;;;;;;;33.13;25.81;99596.00;5030306;28;20204;-72
2021/03/03 09:49:53;;;;;;;11.70;3.67;;;;;;;32.20;26.18;99590.88;5034611;28;20196;-73
2021/03/03 09:52:20;;;;;;;10.20;3.20;;;;;;;31.87;26.79;99581.41;5034495;28;20207;-73
2021/03/03 09:54:47;;;;;;;7.25;3.40;;;;;;;32.64;25.90;99581.59;5034853;28;20224;-73
2021/03/03 09:57:20;;;;;;;11.23;3.72;;;;;;;31.61;28.01;99581.16;5034545;28;20218;-74
2021/03/03 09:59:48;;;;;;;10.48;3.80;;;;;;;30.72;28.91;99587.53;5034625;28;20260;-74
2021/03/03 10:02:18;;;;;;;9.10;3.60;;;;;;;30.86;28.84;99581.31;5034305;28;20283;-74
2021/03/03 10:04:45;;;;;;;7.22;3.50;;;;;;;32.04;26.70;99584.69;5034907;28;20557;-74
2021/03/03 10:07:13;;;;;;;9.45;3.30;;;;;;;32.77;26.44;99581.66;5034824;28;20342;-74
2021/03/03 10:09:42;;;;;;;7.53;3.78;;;;;;;33.69;26.04;99590.38;5034546;28;20629;-75
2021/03/03 10:12:10;;;;;;;12.90;3.78;;;;;;;32.61;26.54;99584.69;5034590;28;20340;-73
2021/03/03 10:14:59;;;;;;;12.20;3.90;;;;;;;31.99;27.33;99589.00;5034419;28;20385;-73
2021/03/03 10:17:33;;;;;;;10.02;3.30;;;;;;;31.92;27.96;99589.75;5034595;28;20266;-73
2021/03/03 10:20:00;;;;;;;7.03;3.35;;;;;;;32.77;26.32;99578.13;5034734;28;20734;-74
2021/03/03 10:22:27;;;;;;;8.43;3.22;;;;;;;33.29;26.39;99584.84;5034216;28;20260;-74
2021/03/03 10:25:01;;;;;;;8.15;3.08;;;;;;;33.70;25.58;99588.47;5033728;28;20686;-73
2021/03/03 10:27:29;;;;;;;11.40;3.13;;;;;;;34.26;24.29;99587.28;5034496;28;20223;-76
2021/03/03 10:29:56;;;;;;;10.00;3.10;;;;;;;34.37;24.29;99585.78;5034343;28;20243;-73
2021/03/03 10:32:23;;;;;;;4.60;3.08;;;;;;;33.84;24.97;99589.31;5035821;28;20197;-74
2021/03/03 10:34:51;;;;;;;7.10;3.30;;;;;;;32.68;26.95;99592.88;5034310;28;20243;-74
2021/03/03 10:37:25;;;;;;;10.70;3.00;;;;;;;32.30;27.32;99585.13;5034035;28;20212;-74
2021/03/03 10:39:52;;;;;;;8.18;3.45;;;;;;;33.56;26.24;99577.59;5033868;28;20649;-74
2021/03/03 10:42:23;;;;;;;12.52;3.70;;;;;;;33.93;25.87;99588.91;5033829;28;20233;-74
2021/03/03 10:44:52;;;;;;;6.70;2.90;;;;;;;32.72;26.12;99589.56;5034195;28;20224;-75
2021/03/03 10:47:40;;;;;;;8.15;3.40;;;;;;;32.03;27.60;99579.47;5034209;28;20207;-74
2021/03/03 10:50:09;;;;;;;5.93;2.75;;;;;;;33.33;26.39;99579.84;5034829;28;20192;-75
2021/03/03 10:52:35;;;;;;;13.82;3.25;;;;;;;34.08;25.65;99582.44;5035545;28;20287;-75
2021/03/03 10:55:15;;;;;;;7.55;2.75;;;;;;;33.13;26.95;99586.00;5035469;28;20235;-76
2021/03/03 10:58:04;;;;;;;9.43;3.17;;;;;;;32.28;27.99;99577.19;5040843;28;20264;-74
2021/03/03 11:00:31;;;;;;;11.02;3.38;;;;;;;32.70;27.28;99569.97;5042238;28;20196;-74
2021/03/03 11:03:05;;;;;;;8.65;2.95;;;;;;;33.89;25.97;99574.09;5038576;28;20239;-76
2021/03/03 11:05:31;;;;;;;7.75;3.15;;;;;;;33.92;25.79;99562.84;5034634;28;20631;-73
2021/03/03 11:07:58;;;;;;;8.35;2.72;;;;;;;32.79;26.55;99568.78;5033213;28;20184;-73
2021/03/03 11:10:25;;;;;;;5.97;2.90;;;;;;;32.01;27.32;99568.84;5033799;28;20247;-75
2021/03/03 11:12:51;;;;;;;5.13;2.75;;;;;;;32.51;26.64;99566.09;5034368;28;20318;-76
2021/03/03 11:15:18;;;;;;;7.97;2.85;;;;;;;33.37;26.50;99557.53;5033695;28;20690;-74
2021/03/03 11:17:44;;;;;;;4.93;2.92;;;;;;;34.08;26.14;99555.31;5034247;28;20654;-73
2021/03/03 11:20:12;;;;;;;7.28;3.15;;;;;;;33.76;26.05;99555.13;5033322;28;20301;-74
2021/03/03 11:22:38;;;;;;;6.47;2.47;;;;;;;32.81;26.45;99544.19;5033599;28;20267;-75
2021/03/03 11:25:05;;;;;;;9.15;2.90;;;;;;;31.93;28.27;99547.34;5032996;28;20308;-75
2021/03/03 11:27:32;;;;;;;5.60;2.60;;;;;;;32.41;27.64;99542.09;5033354;28;20258;-74
2021/03/03 11:29:58;;;;;;;6.07;2.60;;;;;;;33.39;26.75;99532.91;5034036;28;20204;-76
2021/03/03 11:32:24;;;;;;;4.47;2.55;;;;;;;33.39;25.18;99538.34;5033677;28;20271;-75
2021/03/03 11:34:51;;;;;;;5.30;2.70;;;;;;;32.45;25.96;99531.69;5034060;28;20224;-75
2021/03/03 11:37:18;;;;;;;10.07;3.53;;;;;;;31.73;26.75;99531.78;5034184;28;20214;-76
2021/03/03 11:39:44;;;;;;;6.07;2.70;;;;;;;32.96;26.07;99528.63;5033247;28;20631;-76